East Randolph, Vermont
Current Conditions -  °F | °C
As of 4:51 AM on Saturday 25 Oct 2014 (Local Time) from KMPV Reporting Station
Scattered Clouds Scattered Clouds  
Wind Chill: 32°   Ceiling: Unl
Heat Index: 32°   Visibility: 10mi
Dew Point: 31°   Wind: 0mph
Humidity: 96%   Direction: NA
Pressure: 29.78"   Gusts: NA
Location:  43.94°N, 72.55°W
Report Text: KMPV 250851Z AUTO 00000KT 10SM SCT120 00/M01 A2978 RMK AO2 SLP096 I1001 I3001 T00001006 57006 $
Loading
Personal Weather Stations






























Interactive Weather Map
Tropical Storm Tracking
New forecast layout! Learn more

10-Day Weather Forecast

Advertisements
Track Severe Weather on mobile